Corrente, Brazil
Current Conditions -  °F | °C
As of 2:00 PM on Thursday 23 Oct 2014 (Local Time) from SBPJ Reporting Station
Thunderstorm Thunderstorm  
Wind Chill: 86°   Ceiling: Unl
Heat Index: 89°   Visibility: 6mi
Dew Point: 68°   Wind: 1mph
Humidity: 55%   Direction: 260°W
Pressure: NA   Gusts: NA
Location:  10.44°S, 45.16°W
Report Text: SBPJ 231700Z 26001KT 9999 TS SCT025 FEW030CB FEW030TCU 30/20 Q1012
Loading
Personal Weather Stations






























Interactive Weather Map
Tropical Storm Tracking
New forecast layout! Learn more

10-Day Weather Forecast

Advertisements
Track Severe Weather on mobile